PWSweather.com
Personal Weather Stations
Station Observations
PWSLORIS
The Farm At Fox Bay, Loris, SC 29569

The Farm At Fox BayLoris, SC 29569

Lat: 34.067097, Lon: -78.86907

Elevation: 108

Station Type: Davis Vantage Pro2 with 24 hr. FARS and solar

http://www.lorisweather.com

High Low Average
Temperature 86.5°F30.3°C 72.2°F22.3°C 77.1°F25.1°C
Dew Point 77.7°F25.4°C 71.6°F22.0°C 74.7°F23.7°C
Winds 3.5 mph 5.6 kmh Calm Calm Calm SSWCalm SSW
Wind Gusts 4.6 mph7.4 kmh -- --
Humidity 99% 70% 93%
Pressure 30.01 in1016.3 mb 29.93 in1013.5 mb -
Precipitation 0.08 in2.0 mm - -
Hour Temp Dew Point Humidity Winds Wind Gusts Pressure Precip Precip Rate Daily Precip Total
12:00 AM 73.7°F23.2°C 73.1°F22.8°C 98% Calm Calm -- 30.01 in1016.3 mb - 0.00 in0.0 mm 0.00 in0.0 mm
12:15 AM 73.6°F23.1°C 72.7°F22.6°C 97% Calm Calm -- 30.00 in1015.9 mb - 0.00 in0.0 mm 0.00 in0.0 mm
12:30 AM 74.0°F23.3°C 73.4°F23.0°C 98% Calm Calm -- 30.00 in1015.9 mb - 0.00 in0.0 mm 0.00 in0.0 mm
12:45 AM 74.0°F23.3°C 73.4°F23.0°C 98% Calm Calm -- 30.00 in1015.9 mb - 0.00 in0.0 mm 0.00 in0.0 mm
01:00 AM 73.8°F23.2°C 73.2°F22.9°C 98% Calm Calm -- 29.99 in1015.6 mb - 0.00 in0.0 mm 0.00 in0.0 mm
01:15 AM 73.5°F23.1°C 72.9°F22.7°C 98% Calm Calm -- 29.98 in1015.2 mb - 0.00 in0.0 mm 0.00 in0.0 mm
01:30 AM 73.5°F23.1°C 72.9°F22.7°C 98% Calm Calm -- 29.98 in1015.2 mb - 0.00 in0.0 mm 0.00 in0.0 mm
01:45 AM 73.5°F23.1°C 72.9°F22.7°C 98% Calm Calm -- 29.97 in1014.9 mb - 0.01 in0.3 mm 0.01 in0.3 mm
02:00 AM 73.6°F23.1°C 73.0°F22.8°C 98% Calm Calm -- 29.96 in1014.6 mb - 0.00 in0.0 mm 0.01 in0.3 mm
02:15 AM 73.5°F23.1°C 72.9°F22.7°C 98% Calm Calm -- 29.96 in1014.6 mb - 0.00 in0.0 mm 0.01 in0.3 mm
02:30 AM 73.1°F22.8°C 72.5°F22.5°C 98% Calm Calm -- 29.96 in1014.6 mb - 0.00 in0.0 mm 0.01 in0.3 mm
02:45 AM 73.0°F22.8°C 72.4°F22.4°C 98% Calm Calm -- 29.96 in1014.6 mb - 0.00 in0.0 mm 0.01 in0.3 mm
03:00 AM 73.0°F22.8°C 72.4°F22.4°C 98% Calm Calm -- 29.96 in1014.6 mb - 0.00 in0.0 mm 0.01 in0.3 mm
03:15 AM 72.7°F22.6°C 72.1°F22.3°C 98% Calm Calm -- 29.96 in1014.6 mb - 0.00 in0.0 mm 0.01 in0.3 mm
03:30 AM 72.5°F22.5°C 71.9°F22.2°C 98% Calm Calm -- 29.95 in1014.2 mb - 0.00 in0.0 mm 0.01 in0.3 mm
03:45 AM 72.3°F22.4°C 71.7°F22.1°C 98% Calm Calm -- 29.96 in1014.6 mb - 0.00 in0.0 mm 0.01 in0.3 mm
04:00 AM 72.2°F22.3°C 71.6°F22.0°C 98% Calm Calm -- 29.95 in1014.2 mb - 0.00 in0.0 mm 0.01 in0.3 mm
04:15 AM 72.2°F22.3°C 71.6°F22.0°C 98% Calm Calm -- 29.96 in1014.6 mb - 0.00 in0.0 mm 0.01 in0.3 mm
04:30 AM 72.6°F22.6°C 72.3°F22.4°C 99% Calm Calm -- 29.97 in1014.9 mb - 0.00 in0.0 mm 0.01 in0.3 mm
04:45 AM 72.9°F22.7°C 72.3°F22.4°C 98% Calm Calm -- 29.97 in1014.9 mb - 0.00 in0.0 mm 0.01 in0.3 mm
05:00 AM 73.0°F22.8°C 72.4°F22.4°C 98% Calm Calm -- 29.98 in1015.2 mb - 0.00 in0.0 mm 0.01 in0.3 mm
05:15 AM 73.1°F22.8°C 72.8°F22.7°C 99% Calm Calm -- 29.98 in1015.2 mb - 0.00 in0.0 mm 0.01 in0.3 mm
05:30 AM 73.3°F22.9°C 73.0°F22.8°C 99% Calm Calm -- 29.98 in1015.2 mb - 0.00 in0.0 mm 0.01 in0.3 mm
05:45 AM 73.4°F23.0°C 73.1°F22.8°C 99% Calm Calm -- 29.98 in1015.2 mb - 0.00 in0.0 mm 0.01 in0.3 mm
06:00 AM 73.3°F22.9°C 73.0°F22.8°C 99% Calm Calm -- 29.99 in1015.6 mb - 0.00 in0.0 mm 0.01 in0.3 mm
06:15 AM 73.3°F22.9°C 73.0°F22.8°C 99% Calm Calm -- 29.99 in1015.6 mb - 0.00 in0.0 mm 0.01 in0.3 mm
06:30 AM 73.2°F22.9°C 72.9°F22.7°C 99% Calm Calm -- 30.00 in1015.9 mb - 0.00 in0.0 mm 0.01 in0.3 mm
06:45 AM 73.2°F22.9°C 72.9°F22.7°C 99% Calm Calm -- 30.00 in1015.9 mb - 0.00 in0.0 mm 0.01 in0.3 mm
07:00 AM 73.4°F23.0°C 73.1°F22.8°C 99% Calm Calm -- 29.99 in1015.6 mb - 0.00 in0.0 mm 0.01 in0.3 mm
07:15 AM 73.6°F23.1°C 73.3°F22.9°C 99% Calm Calm -- 30.00 in1015.9 mb - 0.00 in0.0 mm 0.01 in0.3 mm
07:30 AM 73.7°F23.2°C 73.4°F23.0°C 99% Calm Calm -- 30.00 in1015.9 mb - 0.00 in0.0 mm 0.01 in0.3 mm
07:45 AM 73.9°F23.3°C 73.6°F23.1°C 99% Calm Calm -- 30.00 in1015.9 mb - 0.00 in0.0 mm 0.01 in0.3 mm
08:00 AM 74.0°F23.3°C 73.7°F23.2°C 99% Calm Calm -- 30.00 in1015.9 mb - 0.00 in0.0 mm 0.01 in0.3 mm
08:15 AM 74.5°F23.6°C 74.2°F23.4°C 99% Calm Calm -- 30.00 in1015.9 mb - 0.00 in0.0 mm 0.01 in0.3 mm
08:30 AM 75.1°F23.9°C 74.5°F23.6°C 98% Calm Calm -- 29.99 in1015.6 mb - 0.00 in0.0 mm 0.01 in0.3 mm
08:45 AM 76.0°F24.4°C 75.1°F23.9°C 97% Calm Calm -- 29.99 in1015.6 mb - 0.00 in0.0 mm 0.01 in0.3 mm
09:00 AM 76.7°F24.8°C 75.4°F24.1°C 96% Calm Calm -- 29.99 in1015.6 mb - 0.00 in0.0 mm 0.01 in0.3 mm
09:15 AM 77.1°F25.1°C 75.2°F24.0°C 94% Calm Calm -- 29.99 in1015.6 mb - 0.00 in0.0 mm 0.01 in0.3 mm
09:30 AM 77.1°F25.1°C 74.9°F23.8°C 93% Calm Calm -- 29.99 in1015.6 mb - 0.00 in0.0 mm 0.01 in0.3 mm
09:45 AM 77.9°F25.5°C 75.1°F23.9°C 91% Calm Calm -- 29.99 in1015.6 mb - 0.00 in0.0 mm 0.01 in0.3 mm
10:00 AM 78.4°F25.8°C 74.9°F23.8°C 89% Calm Calm 2.3 mph3.7 kmh 29.99 in1015.6 mb - 0.00 in0.0 mm 0.01 in0.3 mm
10:15 AM 78.9°F26.1°C 75.7°F24.3°C 90% Calm Calm -- 30.00 in1015.9 mb - 0.00 in0.0 mm 0.01 in0.3 mm
10:30 AM 79.2°F26.2°C 75.7°F24.3°C 89% Calm Calm -- 30.00 in1015.9 mb - 0.00 in0.0 mm 0.01 in0.3 mm
10:45 AM 79.8°F26.6°C 75.9°F24.4°C 88% Calm Calm -- 30.01 in1016.3 mb - 0.00 in0.0 mm 0.01 in0.3 mm
11:00 AM 79.9°F26.6°C 76.0°F24.4°C 88% Calm Calm -- 30.01 in1016.3 mb - 0.00 in0.0 mm 0.01 in0.3 mm
11:15 AM 80.4°F26.9°C 76.2°F24.6°C 87% Calm Calm -- 30.00 in1015.9 mb - 0.00 in0.0 mm 0.01 in0.3 mm
11:30 AM 80.8°F27.1°C 76.2°F24.6°C 86% Calm Calm -- 30.00 in1015.9 mb - 0.00 in0.0 mm 0.01 in0.3 mm
11:45 AM 81.2°F27.3°C 75.1°F23.9°C 82% Calm Calm -- 30.00 in1015.9 mb - 0.00 in0.0 mm 0.01 in0.3 mm
12:00 PM 81.3°F27.4°C 75.7°F24.3°C 83% Calm Calm -- 30.00 in1015.9 mb - 0.00 in0.0 mm 0.01 in0.3 mm
12:15 PM 82.3°F27.9°C 75.1°F23.9°C 79% Calm Calm -- 30.00 in1015.9 mb - 0.00 in0.0 mm 0.01 in0.3 mm
12:30 PM 82.6°F28.1°C 75.8°F24.3°C 80% Calm Calm -- 30.00 in1015.9 mb - 0.00 in0.0 mm 0.01 in0.3 mm
12:45 PM 82.7°F28.2°C 75.9°F24.4°C 80% Calm Calm -- 30.00 in1015.9 mb - 0.00 in0.0 mm 0.01 in0.3 mm
01:00 PM 82.9°F28.3°C 75.3°F24.1°C 78% Calm Calm -- 29.99 in1015.6 mb - 0.00 in0.0 mm 0.01 in0.3 mm
01:15 PM 82.8°F28.2°C 75.6°F24.2°C 79% Calm Calm 2.3 mph3.7 kmh 29.99 in1015.6 mb - 0.00 in0.0 mm 0.01 in0.3 mm
01:30 PM 82.2°F27.9°C 75.4°F24.1°C 80% 1.2 mph S1.9 kmh S 3.5 mph5.6 kmh 29.99 in1015.6 mb - 0.00 in0.0 mm 0.01 in0.3 mm
01:45 PM 81.6°F27.6°C 76.7°F24.8°C 85% Calm Calm 1.2 mph1.9 kmh 29.99 in1015.6 mb - 0.00 in0.0 mm 0.01 in0.3 mm
02:00 PM 80.9°F27.2°C 76.3°F24.6°C 86% Calm Calm 1.2 mph1.9 kmh 29.99 in1015.6 mb - 0.00 in0.0 mm 0.01 in0.3 mm
02:15 PM 80.6°F27.0°C 76.0°F24.4°C 86% Calm Calm 2.3 mph3.7 kmh 29.98 in1015.2 mb - 0.00 in0.0 mm 0.01 in0.3 mm
02:30 PM 81.0°F27.2°C 76.1°F24.5°C 85% 2.3 mph S3.7 kmh S 4.6 mph7.4 kmh 29.98 in1015.2 mb - 0.00 in0.0 mm 0.01 in0.3 mm
02:45 PM 81.8°F27.7°C 75.8°F24.3°C 82% 2.3 mph S3.7 kmh S 3.5 mph5.6 kmh 29.97 in1014.9 mb - 0.00 in0.0 mm 0.01 in0.3 mm
03:00 PM 83.3°F28.5°C 76.8°F24.9°C 81% 1.2 mph S1.9 kmh S 3.5 mph5.6 kmh 29.96 in1014.6 mb - 0.00 in0.0 mm 0.01 in0.3 mm
03:15 PM 83.5°F28.6°C 77.1°F25.1°C 81% Calm Calm -- 29.95 in1014.2 mb - 0.00 in0.0 mm 0.01 in0.3 mm
03:30 PM 85.7°F29.8°C 77.7°F25.4°C 77% 1.2 mph S1.9 kmh S 1.2 mph1.9 kmh 29.95 in1014.2 mb - 0.00 in0.0 mm 0.01 in0.3 mm
03:45 PM 86.5°F30.3°C 77.6°F25.3°C 75% 3.5 mph SSE5.6 kmh SSE 3.5 mph5.6 kmh 29.95 in1014.2 mb - 0.00 in0.0 mm 0.01 in0.3 mm
04:00 PM 86.2°F30.1°C 75.2°F24.0°C 70% 2.3 mph SSW3.7 kmh SSW 3.5 mph5.6 kmh 29.94 in1013.9 mb - 0.00 in0.0 mm 0.01 in0.3 mm
04:15 PM 83.8°F28.8°C 75.4°F24.1°C 76% Calm Calm -- 29.94 in1013.9 mb - 0.00 in0.0 mm 0.01 in0.3 mm
04:30 PM 83.5°F28.6°C 75.1°F23.9°C 76% 1.2 mph S1.9 kmh S 2.3 mph3.7 kmh 29.94 in1013.9 mb - 0.00 in0.0 mm 0.01 in0.3 mm
04:45 PM 83.4°F28.6°C 75.4°F24.1°C 77% 1.2 mph S1.9 kmh S 3.5 mph5.6 kmh 29.94 in1013.9 mb - 0.00 in0.0 mm 0.01 in0.3 mm
05:00 PM 82.1°F27.8°C 75.7°F24.3°C 81% Calm Calm -- 29.94 in1013.9 mb - 0.00 in0.0 mm 0.01 in0.3 mm
05:15 PM 80.2°F26.8°C 75.9°F24.4°C 87% Calm Calm -- 29.94 in1013.9 mb - 0.00 in0.0 mm 0.01 in0.3 mm
05:30 PM 78.9°F26.1°C 75.7°F24.3°C 90% Calm Calm -- 29.93 in1013.5 mb - 0.00 in0.0 mm 0.01 in0.3 mm
05:45 PM 78.6°F25.9°C 76.4°F24.7°C 93% Calm Calm -- 29.93 in1013.5 mb - 0.00 in0.0 mm 0.01 in0.3 mm
06:00 PM 78.9°F26.1°C 77.0°F25.0°C 94% Calm Calm -- 29.93 in1013.5 mb - 0.00 in0.0 mm 0.01 in0.3 mm
06:15 PM 78.4°F25.8°C 76.5°F24.7°C 94% Calm Calm -- 29.94 in1013.9 mb - 0.00 in0.0 mm 0.01 in0.3 mm
06:30 PM 78.2°F25.7°C 76.6°F24.8°C 95% Calm Calm -- 29.94 in1013.9 mb - 0.01 in0.3 mm 0.02 in0.5 mm
06:45 PM 78.1°F25.6°C 76.8°F24.9°C 96% Calm Calm -- 29.95 in1014.2 mb - 0.02 in0.5 mm 0.04 in1.0 mm
07:00 PM 78.3°F25.7°C 77.4°F25.2°C 97% Calm Calm -- 29.95 in1014.2 mb - 0.02 in0.5 mm 0.06 in1.5 mm
07:15 PM 78.1°F25.6°C 77.2°F25.1°C 97% Calm Calm -- 29.96 in1014.6 mb - 0.01 in0.3 mm 0.07 in1.8 mm
07:30 PM 77.8°F25.4°C 76.9°F24.9°C 97% Calm Calm -- 29.97 in1014.9 mb - 0.00 in0.0 mm 0.07 in1.8 mm
07:45 PM 77.7°F25.4°C 76.7°F24.8°C 97% Calm Calm -- 29.98 in1015.2 mb - 0.00 in0.0 mm 0.07 in1.8 mm
08:00 PM 77.5°F25.3°C 76.6°F24.8°C 97% Calm Calm -- 29.98 in1015.2 mb - 0.00 in0.0 mm 0.07 in1.8 mm
08:15 PM 77.3°F25.2°C 76.4°F24.7°C 97% Calm Calm -- 29.98 in1015.2 mb - 0.00 in0.0 mm 0.07 in1.8 mm
08:30 PM 77.1°F25.1°C 76.2°F24.6°C 97% Calm Calm -- 29.99 in1015.6 mb - 0.00 in0.0 mm 0.07 in1.8 mm
08:45 PM 77.1°F25.1°C 76.2°F24.6°C 97% Calm Calm -- 29.99 in1015.6 mb - 0.00 in0.0 mm 0.07 in1.8 mm
09:00 PM 77.0°F25.0°C 76.4°F24.7°C 98% Calm Calm -- 29.99 in1015.6 mb - 0.00 in0.0 mm 0.07 in1.8 mm
09:15 PM 77.1°F25.1°C 76.5°F24.7°C 98% Calm Calm 1.2 mph1.9 kmh 29.99 in1015.6 mb - 0.00 in0.0 mm 0.07 in1.8 mm
09:30 PM 76.6°F24.8°C 76.0°F24.4°C 98% Calm Calm -- 29.99 in1015.6 mb - 0.00 in0.0 mm 0.07 in1.8 mm
09:45 PM 76.2°F24.6°C 75.6°F24.2°C 98% Calm Calm -- 30.00 in1015.9 mb - 0.00 in0.0 mm 0.07 in1.8 mm
10:00 PM 75.1°F23.9°C 74.2°F23.4°C 97% Calm Calm -- 29.99 in1015.6 mb - 0.01 in0.3 mm 0.08 in2.0 mm
10:15 PM 74.6°F23.7°C 73.7°F23.2°C 97% Calm Calm -- 29.99 in1015.6 mb - 0.00 in0.0 mm 0.08 in2.0 mm
10:30 PM 74.6°F23.7°C 73.7°F23.2°C 97% Calm Calm -- 29.99 in1015.6 mb - 0.00 in0.0 mm 0.08 in2.0 mm
10:45 PM 74.4°F23.6°C 73.5°F23.1°C 97% Calm Calm -- 29.99 in1015.6 mb - 0.00 in0.0 mm 0.08 in2.0 mm
11:00 PM 74.5°F23.6°C 73.9°F23.3°C 98% Calm Calm -- 29.98 in1015.2 mb - 0.00 in0.0 mm 0.08 in2.0 mm
11:15 PM 74.4°F23.6°C 73.8°F23.2°C 98% Calm Calm -- 29.98 in1015.2 mb - 0.00 in0.0 mm 0.08 in2.0 mm
11:30 PM 74.3°F23.5°C 73.7°F23.2°C 98% Calm Calm -- 29.99 in1015.6 mb - 0.00 in0.0 mm 0.08 in2.0 mm
11:45 PM 74.3°F23.5°C 73.7°F23.2°C 98% Calm Calm -- 30.00 in1015.9 mb - 0.00 in0.0 mm 0.08 in2.0 mm